Time;durP1;ratioP1;P1;durP2;ratioP2;P2;SDS_P1;SDS_P2;PMS_P1;PMS_P2;Temp;Humidity;BMP_temperature;BMP_pressure;BME280_temperature;BME280_humidity;BME280_pressure;Samples;Min_cycle;Max_cycle;Signal;HPM_P1;HPM_P2
2023/08/11 00:00:36;;;;;;;;;;;;;;;;;;5058019;28;19909;-26
2023/08/11 00:03:05;;;;;;;;;;;;;;;;;;5056730;28;19943;-23
2023/08/11 00:05:31;;;;;;;;;;;;;;;;;;5056964;28;19920;-22
2023/08/11 00:07:57;;;;;;;;;;;;;;;;;;5056909;28;19964;-26
2023/08/11 00:10:23;;;;;;;;;;;;;;;;;;5057180;28;20228;-28
2023/08/11 00:12:50;;;;;;;;;;;;;;;;;;5057057;28;19967;-28
2023/08/11 00:15:18;;;;;;;;;;;;;;;;;;5056816;28;19909;-23
2023/08/11 00:17:43;;;;;;;;;;;;;;;;;;5056971;28;19909;-23
2023/08/11 00:20:09;;;;;;;;;;;;;;;;;;5056902;28;20346;-23
2023/08/11 00:22:37;;;;;;;;;;;;;;;;;;5056576;28;19986;-21
2023/08/11 00:25:03;;;;;;;;;;;;;;;;;;5056557;28;19912;-25
2023/08/11 00:27:29;;;;;;;;;;;;;;;;;;5056581;28;19958;-22
2023/08/11 00:29:56;;;;;;;;;;;;;;;;;;5056810;28;19909;-24
2023/08/11 00:32:22;;;;;;;;;;;;;;;;;;5056434;28;20406;-27
2023/08/11 00:34:48;;;;;;;;;;;;;;;;;;5056724;28;19956;-27
2023/08/11 00:37:13;;;;;;;;;;;;;;;;;;5056434;28;19920;-25
2023/08/11 00:39:39;;;;;;;;;;;;;;;;;;5056116;28;19920;-23
2023/08/11 00:42:05;;;;;;;;;;;;;;;;;;5055329;28;19916;-24
2023/08/11 00:44:31;;;;;;;;;;;;;;;;;;5056435;28;19948;-24
2023/08/11 00:46:57;;;;;;;;;;;;;;;;;;5056199;28;19909;-21
2023/08/11 00:49:23;;;;;;;;;;;;;;;;;;5056140;28;19915;-28
2023/08/11 00:51:49;;;;;;;;;;;;;;;;;;5056025;28;20054;-22
2023/08/11 00:54:15;;;;;;;;;;;;;;;;;;5056052;28;19978;-29
2023/08/11 00:56:44;;;;;;;;;;;;;;;;;;5056039;28;19974;-23
2023/08/11 00:59:10;;;;;;;;;;;;;;;;;;5055914;28;19912;-23
2023/08/11 01:01:36;;;;;;;;;;;;;;;;;;5055933;28;19908;-22
2023/08/11 01:04:03;;;;;;;;;;;;;;;;;;5055642;28;19929;-27
2023/08/11 01:06:29;;;;;;;;;;;;;;;;;;5055827;28;20224;-25
2023/08/11 01:08:55;;;;;;;;;;;;;;;;;;5055823;28;19919;-29
2023/08/11 01:11:21;;;;;;;;;;;;;;;;;;5055961;28;20015;-27
2023/08/11 01:13:48;;;;;;;;;;;;;;;;;;5055629;28;19920;-19
2023/08/11 01:16:14;;;;;;;;;;;;;;;;;;5055653;28;19963;-30
2023/08/11 01:18:39;;;;;;;;;;;;;;;;;;5055512;28;19913;-25
2023/08/11 01:21:05;;;;;;;;;;;;;;;;;;5055832;28;19908;-24
2023/08/11 01:23:31;;;;;;;;;;;;;;;;;;5055398;28;19959;-27
2023/08/11 01:25:57;;;;;;;;;;;;;;;;;;5055502;28;19909;-26
2023/08/11 01:28:23;;;;;;;;;;;;;;;;;;5055895;28;20298;-23
2023/08/11 01:30:49;;;;;;;;;;;;;;;;;;5055389;28;20343;-26
2023/08/11 01:33:15;;;;;;;;;;;;;;;;;;5055294;28;20256;-27
2023/08/11 01:35:41;;;;;;;;;;;;;;;;;;5055300;28;19908;-22
2023/08/11 01:38:08;;;;;;;;;;;;;;;;;;5055166;28;19966;-24
2023/08/11 01:40:35;;;;;;;;;;;;;;;;;;5055221;28;19920;-29
2023/08/11 01:43:01;;;;;;;;;;;;;;;;;;5055088;28;19909;-24
2023/08/11 01:45:28;;;;;;;;;;;;;;;;;;5037511;28;19971;-23
2023/08/11 01:47:53;;;;;;;;;;;;;;;;;;5055364;28;19932;-27
2023/08/11 01:50:19;;;;;;;;;;;;;;;;;;5055284;28;20343;-24
2023/08/11 01:52:45;;;;;;;;;;;;;;;;;;5054593;28;20327;-25
2023/08/11 01:55:11;;;;;;;;;;;;;;;;;;5055249;28;19909;-27
2023/08/11 01:57:38;;;;;;;;;;;;;;;;;;5055195;28;19916;-23
2023/08/11 02:00:07;;;;;;;;;;;;;;;;;;5054808;28;19912;-23
2023/08/11 02:02:33;;;;;;;;;;;;;;;;;;5054615;28;20007;-28
2023/08/11 02:04:59;;;;;;;;;;;;;;;;;;5055108;28;19960;-23
2023/08/11 02:07:25;;;;;;;;;;;;;;;;;;5055041;28;19917;-25
2023/08/11 02:09:54;;;;;;;;;;;;;;;;;;5055051;28;19909;-24
2023/08/11 02:12:22;;;;;;;;;;;;;;;;;;5055274;28;20131;-27
2023/08/11 02:14:48;;;;;;;;;;;;;;;;;;5054980;28;20293;-26
2023/08/11 02:17:14;;;;;;;;;;;;;;;;;;5054966;28;19905;-24
2023/08/11 02:19:40;;;;;;;;;;;;;;;;;;5055288;28;19975;-23
2023/08/11 02:22:06;;;;;;;;;;;;;;;;;;5054600;28;19924;-23
2023/08/11 02:24:32;;;;;;;;;;;;;;;;;;5054849;28;19908;-20
2023/08/11 02:26:58;;;;;;;;;;;;;;;;;;5054577;28;19909;-26
2023/08/11 02:29:24;;;;;;;;;;;;;;;;;;5054867;28;19913;-27
2023/08/11 02:31:50;;;;;;;;;;;;;;;;;;5054782;28;19909;-23
2023/08/11 02:34:16;;;;;;;;;;;;;;;;;;5054549;28;20050;-21
2023/08/11 02:36:42;;;;;;;;;;;;;;;;;;5054530;28;19909;-22
2023/08/11 02:39:08;;;;;;;;;;;;;;;;;;5054656;28;19923;-21
2023/08/11 02:41:34;;;;;;;;;;;;;;;;;;5037052;28;19923;-23
2023/08/11 02:44:00;;;;;;;;;;;;;;;;;;5054404;28;19917;-26
2023/08/11 02:46:26;;;;;;;;;;;;;;;;;;5054402;28;19909;-23
2023/08/11 02:48:52;;;;;;;;;;;;;;;;;;5054659;28;19912;-22
2023/08/11 02:51:18;;;;;;;;;;;;;;;;;;5054279;28;20305;-31
2023/08/11 02:53:44;;;;;;;;;;;;;;;;;;5054242;28;19909;-27
2023/08/11 02:56:13;;;;;;;;;;;;;;;;;;5054296;28;20000;-25
2023/08/11 02:58:39;;;;;;;;;;;;;;;;;;5054517;28;19970;-24
2023/08/11 03:01:05;;;;;;;;;;;;;;;;;;5054279;28;19908;-25
2023/08/11 03:03:30;;;;;;;;;;;;;;;;;;5054139;28;20363;-28
2023/08/11 03:05:57;;;;;;;;;;;;;;;;;;5058138;28;20229;-24
2023/08/11 03:08:22;;;;;;;;;;;;;;;;;;5058071;28;19920;-22
2023/08/11 03:10:48;;;;;;;;;;;;;;;;;;5057924;28;19908;-25
2023/08/11 03:13:14;;;;;;;;;;;;;;;;;;5058135;28;19908;-27
2023/08/11 03:15:40;;;;;;;;;;;;;;;;;;5058123;28;19971;-24
2023/08/11 03:18:06;;;;;;;;;;;;;;;;;;5057722;28;19909;-23
2023/08/11 03:20:32;;;;;;;;;;;;;;;;;;5058113;28;19913;-25
2023/08/11 03:22:58;;;;;;;;;;;;;;;;;;5057725;28;19951;-23
2023/08/11 03:25:24;;;;;;;;;;;;;;;;;;5057699;28;19909;-25
2023/08/11 03:27:50;;;;;;;;;;;;;;;;;;5040104;28;19909;-26
2023/08/11 03:30:16;;;;;;;;;;;;;;;;;;5057874;28;19916;-24
2023/08/11 03:32:42;;;;;;;;;;;;;;;;;;5057550;28;20301;-23
2023/08/11 03:35:08;;;;;;;;;;;;;;;;;;5057547;28;20264;-28
2023/08/11 03:37:34;;;;;;;;;;;;;;;;;;5057684;28;20003;-22
2023/08/11 03:40:00;;;;;;;;;;;;;;;;;;5057573;28;19921;-29
2023/08/11 03:42:26;;;;;;;;;;;;;;;;;;5057253;28;20260;-21
2023/08/11 03:44:52;;;;;;;;;;;;;;;;;;5057214;28;19980;-25
2023/08/11 03:47:19;;;;;;;;;;;;;;;;;;5057234;28;19908;-26
2023/08/11 03:49:48;;;;;;;;;;;;;;;;;;5057240;28;19970;-26
2023/08/11 03:52:14;;;;;;;;;;;;;;;;;;5057327;28;20281;-22
2023/08/11 03:54:40;;;;;;;;;;;;;;;;;;5057494;28;20003;-23
2023/08/11 03:57:09;;;;;;;;;;;;;;;;;;5039260;28;19916;-25
2023/08/11 03:59:36;;;;;;;;;;;;;;;;;;5056810;28;19924;-28
2023/08/11 04:02:02;;;;;;;;;;;;;;;;;;5057112;28;19909;-27
2023/08/11 04:04:28;;;;;;;;;;;;;;;;;;5056887;28;19921;-27
2023/08/11 04:06:54;;;;;;;;;;;;;;;;;;5056802;28;19909;-26
2023/08/11 04:09:19;;;;;;;;;;;;;;;;;;5056732;28;20263;-27
2023/08/11 04:11:45;;;;;;;;;;;;;;;;;;5056507;28;19924;-27
2023/08/11 04:14:11;;;;;;;;;;;;;;;;;;5056667;28;20297;-26
2023/08/11 04:16:37;;;;;;;;;;;;;;;;;;5056362;28;19923;-25
2023/08/11 04:19:03;;;;;;;;;;;;;;;;;;5057148;28;20012;-21
2023/08/11 04:21:29;;;;;;;;;;;;;;;;;;5056419;28;19912;-27
2023/08/11 04:23:55;;;;;;;;;;;;;;;;;;5056448;28;19995;-25
2023/08/11 04:26:21;;;;;;;;;;;;;;;;;;5056430;28;19908;-27
2023/08/11 04:28:47;;;;;;;;;;;;;;;;;;5056338;28;20287;-22
2023/08/11 04:31:13;;;;;;;;;;;;;;;;;;5056394;28;20287;-28
2023/08/11 04:33:39;;;;;;;;;;;;;;;;;;5056298;28;20346;-30
2023/08/11 04:36:05;;;;;;;;;;;;;;;;;;5056254;28;19908;-29
2023/08/11 04:38:31;;;;;;;;;;;;;;;;;;5056279;28;19948;-29
2023/08/11 04:40:57;;;;;;;;;;;;;;;;;;5055984;28;19978;-22
2023/08/11 04:43:23;;;;;;;;;;;;;;;;;;5055974;28;20355;-24
2023/08/11 04:45:49;;;;;;;;;;;;;;;;;;5056054;28;20348;-24
2023/08/11 04:48:15;;;;;;;;;;;;;;;;;;5055624;28;20062;-21
2023/08/11 04:50:41;;;;;;;;;;;;;;;;;;5055743;28;19917;-26
2023/08/11 04:53:08;;;;;;;;;;;;;;;;;;5055917;28;19908;-25
2023/08/11 04:55:34;;;;;;;;;;;;;;;;;;5055773;28;19920;-21
2023/08/11 04:58:00;;;;;;;;;;;;;;;;;;5055681;28;20070;-24
2023/08/11 05:00:26;;;;;;;;;;;;;;;;;;5055814;28;19909;-23
2023/08/11 05:02:53;;;;;;;;;;;;;;;;;;5055402;28;19936;-27
2023/08/11 05:05:19;;;;;;;;;;;;;;;;;;5055437;28;19932;-26
2023/08/11 05:07:45;;;;;;;;;;;;;;;;;;5055445;28;19920;-27
2023/08/11 05:10:11;;;;;;;;;;;;;;;;;;5038129;28;19915;-27
2023/08/11 05:12:37;;;;;;;;;;;;;;;;;;5055791;28;19916;-25
2023/08/11 05:15:03;;;;;;;;;;;;;;;;;;5055579;28;19909;-25
2023/08/11 05:17:29;;;;;;;;;;;;;;;;;;5055528;28;19962;-23
2023/08/11 05:19:56;;;;;;;;;;;;;;;;;;5055426;28;19920;-29
2023/08/11 05:22:22;;;;;;;;;;;;;;;;;;5055295;28;20336;-30
2023/08/11 05:24:48;;;;;;;;;;;;;;;;;;5055337;28;19927;-28
2023/08/11 05:27:15;;;;;;;;;;;;;;;;;;5054432;28;20006;-28
2023/08/11 05:29:45;;;;;;;;;;;;;;;;;;5055232;28;19915;-23
2023/08/11 05:32:11;;;;;;;;;;;;;;;;;;5055040;28;19909;-27
2023/08/11 05:34:36;;;;;;;;;;;;;;;;;;5056016;28;20384;-26
2023/08/11 05:37:03;;;;;;;;;;;;;;;;;;5055175;28;19912;-27
2023/08/11 05:39:29;;;;;;;;;;;;;;;;;;5055039;28;19913;-22
2023/08/11 05:41:56;;;;;;;;;;;;;;;;;;5055037;28;20251;-22
2023/08/11 05:44:23;;;;;;;;;;;;;;;;;;5054906;28;19939;-27
2023/08/11 05:46:48;;;;;;;;;;;;;;;;;;5054873;28;19931;-27
2023/08/11 05:49:14;;;;;;;;;;;;;;;;;;5037200;28;19908;-27
2023/08/11 05:51:40;;;;;;;;;;;;;;;;;;5055086;28;19909;-23
2023/08/11 05:54:06;;;;;;;;;;;;;;;;;;5054665;28;19994;-26
2023/08/11 05:56:32;;;;;;;;;;;;;;;;;;5054871;28;19912;-24
2023/08/11 05:58:58;;;;;;;;;;;;;;;;;;5037133;28;19923;-28
2023/08/11 06:01:24;;;;;;;;;;;;;;;;;;5054569;28;20004;-26
2023/08/11 06:03:50;;;;;;;;;;;;;;;;;;5054320;28;20276;-27
2023/08/11 06:06:16;;;;;;;;;;;;;;;;;;5037195;28;20237;-25
2023/08/11 06:08:42;;;;;;;;;;;;;;;;;;5054859;28;19913;-26
2023/08/11 06:11:08;;;;;;;;;;;;;;;;;;5037032;28;20374;-24
2023/08/11 06:13:34;;;;;;;;;;;;;;;;;;5054013;28;20414;-26
2023/08/11 06:16:00;;;;;;;;;;;;;;;;;;5053905;28;20247;-29
2023/08/11 06:18:26;;;;;;;;;;;;;;;;;;5053571;28;19924;-25
2023/08/11 06:20:53;;;;;;;;;;;;;;;;;;5053708;28;19913;-21
2023/08/11 06:23:19;;;;;;;;;;;;;;;;;;5053794;28;19997;-23
2023/08/11 06:25:45;;;;;;;;;;;;;;;;;;5053850;28;20021;-23
2023/08/11 06:28:11;;;;;;;;;;;;;;;;;;5053645;28;19908;-24
2023/08/11 06:30:37;;;;;;;;;;;;;;;;;;5053405;28;19916;-25
2023/08/11 06:33:03;;;;;;;;;;;;;;;;;;5053527;28;19928;-28
2023/08/11 06:35:28;;;;;;;;;;;;;;;;;;5053872;28;20344;-25
2023/08/11 06:37:54;;;;;;;;;;;;;;;;;;5055201;28;19909;-24
2023/08/11 06:40:20;;;;;;;;;;;;;;;;;;5058300;28;19913;-25
2023/08/11 06:42:46;;;;;;;;;;;;;;;;;;5058233;28;20004;-26
2023/08/11 06:45:12;;;;;;;;;;;;;;;;;;5058362;28;19913;-26
2023/08/11 06:47:38;;;;;;;;;;;;;;;;;;5058397;28;20415;-23
2023/08/11 06:50:04;;;;;;;;;;;;;;;;;;5058468;28;19909;-26
2023/08/11 06:52:30;;;;;;;;;;;;;;;;;;5058212;28;19908;-23
2023/08/11 06:54:56;;;;;;;;;;;;;;;;;;5058268;28;19909;-27
2023/08/11 06:57:22;;;;;;;;;;;;;;;;;;5040479;28;20190;-25
2023/08/11 06:59:48;;;;;;;;;;;;;;;;;;5057996;28;20259;-26
2023/08/11 07:02:14;;;;;;;;;;;;;;;;;;5057794;28;19908;-28
2023/08/11 07:04:40;;;;;;;;;;;;;;;;;;5057661;28;19920;-22
2023/08/11 07:07:06;;;;;;;;;;;;;;;;;;5057928;28;19963;-26
2023/08/11 07:09:32;;;;;;;;;;;;;;;;;;5057831;28;19915;-25
2023/08/11 07:11:58;;;;;;;;;;;;;;;;;;5057811;28;19909;-27
2023/08/11 07:14:24;;;;;;;;;;;;;;;;;;5057732;28;19958;-23
2023/08/11 07:16:50;;;;;;;;;;;;;;;;;;5039885;28;19909;-25
2023/08/11 07:19:16;;;;;;;;;;;;;;;;;;5057592;28;19913;-25
2023/08/11 07:21:42;;;;;;;;;;;;;;;;;;5057566;28;19999;-22
2023/08/11 07:24:08;;;;;;;;;;;;;;;;;;5057483;28;19954;-22
2023/08/11 07:26:34;;;;;;;;;;;;;;;;;;5057716;28;20289;-25
2023/08/11 07:29:00;;;;;;;;;;;;;;;;;;5057431;28;19963;-22
2023/08/11 07:31:26;;;;;;;;;;;;;;;;;;5057472;28;19909;-25
2023/08/11 07:33:52;;;;;;;;;;;;;;;;;;5057409;28;19920;-28
2023/08/11 07:36:18;;;;;;;;;;;;;;;;;;5057706;28;19909;-26
2023/08/11 07:38:43;;;;;;;;;;;;;;;;;;5039704;28;19948;-23
2023/08/11 07:41:09;;;;;;;;;;;;;;;;;;5057096;28;20259;-23
2023/08/11 07:43:35;;;;;;;;;;;;;;;;;;5057151;28;19917;-24
2023/08/11 07:46:01;;;;;;;;;;;;;;;;;;5057132;28;19908;-24
2023/08/11 07:48:27;;;;;;;;;;;;;;;;;;5056941;28;19909;-30
2023/08/11 07:50:53;;;;;;;;;;;;;;;;;;5056342;28;19920;-25
2023/08/11 07:53:19;;;;;;;;;;;;;;;;;;5057866;28;20246;-29
2023/08/11 07:55:45;;;;;;;;;;;;;;;;;;5056852;28;19913;-23
2023/08/11 07:58:11;;;;;;;;;;;;;;;;;;5056642;28;20283;-24
2023/08/11 08:00:37;;;;;;;;;;;;;;;;;;5056645;28;19936;-26
2023/08/11 08:03:04;;;;;;;;;;;;;;;;;;5056595;28;19920;-27
2023/08/11 08:05:30;;;;;;;;;;;;;;;;;;5056880;28;19904;-25
2023/08/11 08:07:56;;;;;;;;;;;;;;;;;;5056493;28;19916;-24
2023/08/11 08:10:22;;;;;;;;;;;;;;;;;;5056767;28;20328;-23
2023/08/11 08:12:48;;;;;;;;;;;;;;;;;;5056344;28;19936;-28
2023/08/11 08:15:14;;;;;;;;;;;;;;;;;;5056887;28;19909;-24
2023/08/11 08:17:40;;;;;;;;;;;;;;;;;;5056437;28;19910;-27
2023/08/11 08:20:09;;;;;;;;;;;;;;;;;;5056314;28;19919;-21
2023/08/11 08:22:35;;;;;;;;;;;;;;;;;;5056243;28;20042;-28
2023/08/11 08:25:01;;;;;;;;;;;;;;;;;;5056536;28;19952;-28
2023/08/11 08:27:27;;;;;;;;;;;;;;;;;;5056496;28;19921;-22
2023/08/11 08:29:53;;;;;;;;;;;;;;;;;;5056426;28;19913;-28
2023/08/11 08:32:19;;;;;;;;;;;;;;;;;;5056186;28;19954;-29
2023/08/11 08:34:45;;;;;;;;;;;;;;;;;;5056394;28;19909;-28
2023/08/11 08:37:11;;;;;;;;;;;;;;;;;;5056582;28;19909;-28
2023/08/11 08:39:36;;;;;;;;;;;;;;;;;;5055965;28;19913;-28
2023/08/11 08:42:03;;;;;;;;;;;;;;;;;;5055891;28;20328;-27
2023/08/11 08:44:29;;;;;;;;;;;;;;;;;;5055753;28;19995;-27
2023/08/11 08:46:55;;;;;;;;;;;;;;;;;;5037959;28;19909;-24
2023/08/11 08:49:21;;;;;;;;;;;;;;;;;;5055962;28;20292;-28
2023/08/11 08:51:47;;;;;;;;;;;;;;;;;;5055697;28;20347;-31
2023/08/11 08:54:13;;;;;;;;;;;;;;;;;;5055632;28;19972;-30
2023/08/11 08:56:39;;;;;;;;;;;;;;;;;;5055843;28;20000;-28
2023/08/11 08:59:05;;;;;;;;;;;;;;;;;;5055483;28;19913;-27
2023/08/11 09:01:31;;;;;;;;;;;;;;;;;;5054766;28;19970;-30
2023/08/11 09:03:57;;;;;;;;;;;;;;;;;;5055202;28;19960;-27
2023/08/11 09:06:23;;;;;;;;;;;;;;;;;;5055701;28;19912;-26
2023/08/11 09:08:49;;;;;;;;;;;;;;;;;;5055633;28;19956;-26
2023/08/11 09:11:15;;;;;;;;;;;;;;;;;;5055638;28;20033;-27
2023/08/11 09:13:41;;;;;;;;;;;;;;;;;;5055320;28;20355;-27
2023/08/11 09:16:07;;;;;;;;;;;;;;;;;;5055472;28;19909;-30
2023/08/11 09:18:33;;;;;;;;;;;;;;;;;;5055170;28;19917;-30
2023/08/11 09:20:59;;;;;;;;;;;;;;;;;;5056119;28;19987;-26
2023/08/11 09:23:25;;;;;;;;;;;;;;;;;;5055386;28;20306;-26
2023/08/11 09:25:51;;;;;;;;;;;;;;;;;;5055451;28;20352;-26
2023/08/11 09:28:16;;;;;;;;;;;;;;;;;;5037718;28;20264;-26
2023/08/11 09:30:42;;;;;;;;;;;;;;;;;;5055345;28;20323;-25
2023/08/11 09:33:08;;;;;;;;;;;;;;;;;;5055414;28;19909;-26
2023/08/11 09:35:34;;;;;;;;;;;;;;;;;;5055181;28;19939;-24
2023/08/11 09:38:00;;;;;;;;;;;;;;;;;;5055176;28;19966;-23
2023/08/11 09:40:26;;;;;;;;;;;;;;;;;;5055190;28;19913;-26
2023/08/11 09:42:52;;;;;;;;;;;;;;;;;;5054879;28;20385;-24
2023/08/11 09:45:18;;;;;;;;;;;;;;;;;;5055064;28;19948;-24
2023/08/11 09:47:44;;;;;;;;;;;;;;;;;;5054669;28;19909;-24
2023/08/11 09:50:10;;;;;;;;;;;;;;;;;;5054904;28;19909;-26
2023/08/11 09:52:36;;;;;;;;;;;;;;;;;;5054760;28;19979;-25
2023/08/11 09:55:06;;;;;;;;;;;;;;;;;;5054846;28;19909;-24
2023/08/11 09:57:32;;;;;;;;;;;;;;;;;;5054999;28;19909;-27
2023/08/11 09:59:57;;;;;;;;;;;;;;;;;;5054665;28;20358;-24
2023/08/11 10:02:23;;;;;;;;;;;;;;;;;;5054969;28;19919;-24
2023/08/11 10:04:54;;;;;;;;;;;;;;;;;;5033542;28;20272;-24
2023/08/11 10:07:20;;;;;;;;;;;;;;;;;;5034768;28;19912;-26
2023/08/11 10:09:46;;;;;;;;;;;;;;;;;;5034555;28;19924;-23
2023/08/11 10:12:12;;;;;;;;;;;;;;;;;;5034363;28;19984;-25
2023/08/11 10:14:38;;;;;;;;;;;;;;;;;;5034161;28;19909;-29
2023/08/11 10:17:04;;;;;;;;;;;;;;;;;;5034432;28;19971;-26
2023/08/11 10:19:30;;;;;;;;;;;;;;;;;;5034387;28;20217;-27
2023/08/11 10:21:56;;;;;;;;;;;;;;;;;;5034275;28;19909;-23
2023/08/11 10:24:22;;;;;;;;;;;;;;;;;;5034335;28;20012;-25
2023/08/11 10:26:48;;;;;;;;;;;;;;;;;;5034510;28;19928;-26
2023/08/11 10:29:14;;;;;;;;;;;;;;;;;;5034515;28;19921;-26
2023/08/11 10:31:40;;;;;;;;;;;;;;;;;;5034399;28;20042;-26
2023/08/11 10:34:06;;;;;;;;;;;;;;;;;;5034426;28;19913;-24
2023/08/11 10:36:32;;;;;;;;;;;;;;;;;;5034646;28;19920;-27
2023/08/11 10:38:58;;;;;;;;;;;;;;;;;;5034426;28;19913;-25
2023/08/11 10:41:24;;;;;;;;;;;;;;;;;;5034700;28;19916;-28
2023/08/11 10:43:50;;;;;;;;;;;;;;;;;;5034349;28;19909;-27
2023/08/11 10:46:16;;;;;;;;;;;;;;;;;;5034698;28;19909;-29
2023/08/11 10:48:41;;;;;;;;;;;;;;;;;;5034538;28;19909;-24
2023/08/11 10:51:07;;;;;;;;;;;;;;;;;;5034200;28;19971;-24
2023/08/11 10:53:33;;;;;;;;;;;;;;;;;;5034108;28;19917;-27
2023/08/11 10:56:02;;;;;;;;;;;;;;;;;;5034117;28;20011;-27
2023/08/11 10:58:28;;;;;;;;;;;;;;;;;;5033490;28;19909;-29
2023/08/11 11:00:54;;;;;;;;;;;;;;;;;;5033873;28;19909;-26
2023/08/11 11:03:21;;;;;;;;;;;;;;;;;;5037637;28;19970;-25
2023/08/11 11:05:47;;;;;;;;;;;;;;;;;;5053845;28;20133;-23
2023/08/11 11:08:13;;;;;;;;;;;;;;;;;;5053488;28;19959;-27
2023/08/11 11:10:39;;;;;;;;;;;;;;;;;;5053543;28;20359;-27
2023/08/11 11:13:05;;;;;;;;;;;;;;;;;;5053393;28;19909;-24
2023/08/11 11:15:31;;;;;;;;;;;;;;;;;;5053370;28;19909;-24
2023/08/11 11:17:57;;;;;;;;;;;;;;;;;;5053338;28;19909;-24
2023/08/11 11:20:22;;;;;;;;;;;;;;;;;;5053169;28;20204;-26
2023/08/11 11:22:49;;;;;;;;;;;;;;;;;;5053801;28;20399;-26
2023/08/11 11:25:16;;;;;;;;;;;;;;;;;;5055469;28;19909;-27
2023/08/11 11:27:42;;;;;;;;;;;;;;;;;;5057659;28;19908;-29
2023/08/11 11:30:09;;;;;;;;;;;;;;;;;;5057533;28;19971;-26
2023/08/11 11:32:35;;;;;;;;;;;;;;;;;;5057349;28;19909;-27
2023/08/11 11:35:03;;;;;;;;;;;;;;;;;;5057292;28;20354;-29
2023/08/11 11:37:28;;;;;;;;;;;;;;;;;;5057193;28;19909;-27
2023/08/11 11:39:54;;;;;;;;;;;;;;;;;;5057475;28;19912;-29
2023/08/11 11:42:20;;;;;;;;;;;;;;;;;;5057195;28;19909;-25
2023/08/11 11:44:46;;;;;;;;;;;;;;;;;;5057297;28;19939;-30
2023/08/11 11:47:12;;;;;;;;;;;;;;;;;;5038932;28;19913;-27
2023/08/11 11:49:38;;;;;;;;;;;;;;;;;;5039977;28;19928;-29
2023/08/11 11:52:04;;;;;;;;;;;;;;;;;;5057047;28;19908;-27
2023/08/11 11:54:30;;;;;;;;;;;;;;;;;;5056982;28;19909;-27
2023/08/11 11:56:56;;;;;;;;;;;;;;;;;;5056877;28;19908;-29
2023/08/11 11:59:22;;;;;;;;;;;;;;;;;;5056709;28;19913;-28
2023/08/11 12:01:48;;;;;;;;;;;;;;;;;;5039098;28;19909;-24
2023/08/11 12:04:14;;;;;;;;;;;;;;;;;;5035706;28;19975;-23
2023/08/11 12:06:40;;;;;;;;;;;;;;;;;;5036744;28;20006;-26
2023/08/11 12:09:08;;;;;;;;;;;;;;;;;;5036816;28;19957;-27
2023/08/11 12:11:34;;;;;;;;;;;;;;;;;;5036831;28;20008;-27
2023/08/11 12:14:00;;;;;;;;;;;;;;;;;;5036776;28;19952;-28
2023/08/11 12:16:26;;;;;;;;;;;;;;;;;;5036680;28;19909;-25
2023/08/11 12:18:52;;;;;;;;;;;;;;;;;;5036497;28;19943;-26
2023/08/11 12:21:18;;;;;;;;;;;;;;;;;;5036793;28;20259;-28
2023/08/11 12:23:44;;;;;;;;;;;;;;;;;;5036476;28;20364;-26
2023/08/11 12:26:10;;;;;;;;;;;;;;;;;;5036790;28;20225;-27
2023/08/11 12:28:36;;;;;;;;;;;;;;;;;;5036730;28;19909;-24
2023/08/11 12:31:03;;;;;;;;;;;;;;;;;;5036641;28;19963;-26
2023/08/11 12:33:29;;;;;;;;;;;;;;;;;;5036451;28;19909;-24
2023/08/11 12:35:54;;;;;;;;;;;;;;;;;;5035412;28;19909;-26
2023/08/11 12:38:20;;;;;;;;;;;;;;;;;;5036234;28;19915;-27
2023/08/11 12:40:46;;;;;;;;;;;;;;;;;;5036492;28;19952;-33
2023/08/11 12:43:13;;;;;;;;;;;;;;;;;;5036185;28;19979;-30
2023/08/11 12:45:40;;;;;;;;;;;;;;;;;;5036116;28;19913;-28
2023/08/11 12:48:06;;;;;;;;;;;;;;;;;;5035931;28;19913;-25
2023/08/11 12:50:32;;;;;;;;;;;;;;;;;;5036115;28;19909;-29
2023/08/11 12:52:58;;;;;;;;;;;;;;;;;;5035828;28;19910;-26
2023/08/11 12:55:24;;;;;;;;;;;;;;;;;;5035967;28;19909;-25
2023/08/11 12:57:50;;;;;;;;;;;;;;;;;;5035960;28;19913;-30
2023/08/11 13:00:16;;;;;;;;;;;;;;;;;;5035910;28;19912;-26
2023/08/11 13:02:42;;;;;;;;;;;;;;;;;;5035577;28;19913;-26
2023/08/11 13:05:08;;;;;;;;;;;;;;;;;;5052914;28;19920;-24
2023/08/11 13:07:34;;;;;;;;;;;;;;;;;;5055742;28;19917;-23
2023/08/11 13:10:00;;;;;;;;;;;;;;;;;;5055699;28;19931;-29
2023/08/11 13:12:26;;;;;;;;;;;;;;;;;;5055585;28;19939;-24
2023/08/11 13:14:52;;;;;;;;;;;;;;;;;;5055590;28;20010;-26
2023/08/11 13:17:18;;;;;;;;;;;;;;;;;;5055765;28;19909;-34
2023/08/11 13:19:44;;;;;;;;;;;;;;;;;;5055278;28;20344;-27
2023/08/11 13:22:10;;;;;;;;;;;;;;;;;;5055535;28;20336;-28
2023/08/11 13:24:36;;;;;;;;;;;;;;;;;;5055259;28;20267;-28
2023/08/11 13:27:02;;;;;;;;;;;;;;;;;;5055536;28;20254;-27
2023/08/11 13:29:28;;;;;;;;;;;;;;;;;;5055441;28;19913;-25
2023/08/11 13:31:54;;;;;;;;;;;;;;;;;;5054916;28;19916;-29
2023/08/11 13:34:20;;;;;;;;;;;;;;;;;;5037457;28;19920;-23
2023/08/11 13:36:46;;;;;;;;;;;;;;;;;;5055067;28;20392;-30
2023/08/11 13:39:12;;;;;;;;;;;;;;;;;;5055304;28;19970;-30
2023/08/11 13:41:39;;;;;;;;;;;;;;;;;;5055094;28;19972;-25
2023/08/11 13:44:05;;;;;;;;;;;;;;;;;;5037525;28;19909;-24
2023/08/11 13:46:31;;;;;;;;;;;;;;;;;;5055359;28;19971;-25
2023/08/11 13:48:57;;;;;;;;;;;;;;;;;;5054773;28;19909;-25
2023/08/11 13:51:23;;;;;;;;;;;;;;;;;;5054895;28;20003;-27
2023/08/11 13:53:49;;;;;;;;;;;;;;;;;;5054830;28;19909;-27
2023/08/11 13:56:15;;;;;;;;;;;;;;;;;;5055173;28;20256;-24
2023/08/11 13:58:41;;;;;;;;;;;;;;;;;;5054623;28;19952;-25
2023/08/11 14:01:07;;;;;;;;;;;;;;;;;;5054738;28;20283;-30
2023/08/11 14:03:33;;;;;;;;;;;;;;;;;;5054329;28;20367;-26
2023/08/11 14:05:59;;;;;;;;;;;;;;;;;;5054814;28;19909;-24
2023/08/11 14:08:25;;;;;;;;;;;;;;;;;;5054646;28;20004;-28
2023/08/11 14:10:52;;;;;;;;;;;;;;;;;;5054489;28;19916;-27
2023/08/11 14:13:20;;;;;;;;;;;;;;;;;;5054520;28;20196;-29
2023/08/11 14:15:46;;;;;;;;;;;;;;;;;;5054704;28;20262;-24
2023/08/11 14:18:12;;;;;;;;;;;;;;;;;;5054432;28;20020;-27
2023/08/11 14:20:38;;;;;;;;;;;;;;;;;;5054302;28;19921;-26
2023/08/11 14:23:04;;;;;;;;;;;;;;;;;;5054099;28;19970;-30
2023/08/11 14:25:30;;;;;;;;;;;;;;;;;;5054284;28;19919;-24
2023/08/11 14:27:56;;;;;;;;;;;;;;;;;;5054256;28;19965;-28
2023/08/11 14:30:22;;;;;;;;;;;;;;;;;;5054685;28;19912;-32
2023/08/11 14:32:48;;;;;;;;;;;;;;;;;;5054639;28;19955;-24
2023/08/11 14:35:14;;;;;;;;;;;;;;;;;;5054363;28;19916;-27
2023/08/11 14:37:40;;;;;;;;;;;;;;;;;;5054567;28;20394;-23
2023/08/11 14:40:07;;;;;;;;;;;;;;;;;;5054177;28;20352;-27
2023/08/11 14:42:32;;;;;;;;;;;;;;;;;;5054614;28;19923;-29
2023/08/11 14:44:58;;;;;;;;;;;;;;;;;;5054186;28;19909;-27
2023/08/11 14:47:24;;;;;;;;;;;;;;;;;;5053984;28;19909;-27
2023/08/11 14:49:50;;;;;;;;;;;;;;;;;;5054901;28;19912;-25
2023/08/11 14:52:16;;;;;;;;;;;;;;;;;;5054020;28;19920;-28
2023/08/11 14:54:42;;;;;;;;;;;;;;;;;;5054552;28;20417;-26
2023/08/11 14:57:12;;;;;;;;;;;;;;;;;;5036381;28;19908;-24
2023/08/11 14:59:38;;;;;;;;;;;;;;;;;;5054443;28;19974;-25
2023/08/11 15:02:04;;;;;;;;;;;;;;;;;;5039956;28;20205;-25
2023/08/11 15:04:30;;;;;;;;;;;;;;;;;;5057214;28;19920;-29
2023/08/11 15:06:56;;;;;;;;;;;;;;;;;;5057626;28;19955;-27
2023/08/11 15:09:22;;;;;;;;;;;;;;;;;;5057454;28;19909;-27
2023/08/11 15:11:49;;;;;;;;;;;;;;;;;;5057407;28;19909;-24
2023/08/11 15:14:15;;;;;;;;;;;;;;;;;;5057043;28;19909;-27
2023/08/11 15:16:41;;;;;;;;;;;;;;;;;;5056935;28;19916;-24
2023/08/11 15:19:07;;;;;;;;;;;;;;;;;;5056923;28;20271;-29
2023/08/11 15:21:33;;;;;;;;;;;;;;;;;;5039264;28;20081;-27
2023/08/11 15:23:59;;;;;;;;;;;;;;;;;;5039075;28;19916;-27
2023/08/11 15:26:25;;;;;;;;;;;;;;;;;;5057105;28;19909;-30
2023/08/11 15:28:51;;;;;;;;;;;;;;;;;;5057056;28;19999;-26
2023/08/11 15:31:17;;;;;;;;;;;;;;;;;;5056752;28;19947;-25
2023/08/11 15:33:43;;;;;;;;;;;;;;;;;;5056604;28;20294;-23
2023/08/11 15:36:09;;;;;;;;;;;;;;;;;;5056569;28;20335;-27
2023/08/11 15:38:35;;;;;;;;;;;;;;;;;;5056629;28;19909;-29
2023/08/11 15:41:02;;;;;;;;;;;;;;;;;;5057037;28;20354;-27
2023/08/11 15:43:28;;;;;;;;;;;;;;;;;;5056716;28;19915;-28
2023/08/11 15:45:53;;;;;;;;;;;;;;;;;;5056978;28;19959;-28
2023/08/11 15:48:19;;;;;;;;;;;;;;;;;;5057516;28;19909;-28
2023/08/11 15:50:45;;;;;;;;;;;;;;;;;;5057130;28;19913;-28
2023/08/11 15:53:11;;;;;;;;;;;;;;;;;;5057132;28;20003;-30
2023/08/11 15:55:37;;;;;;;;;;;;;;;;;;5057066;28;19909;-31
2023/08/11 15:58:03;;;;;;;;;;;;;;;;;;5056842;28;19913;-23
2023/08/11 16:00:30;;;;;;;;;;;;;;;;;;5056696;28;19916;-26
2023/08/11 16:02:56;;;;;;;;;;;;;;;;;;5056412;28;19909;-26
2023/08/11 16:05:21;;;;;;;;;;;;;;;;;;5056685;28;19921;-29
2023/08/11 16:07:47;;;;;;;;;;;;;;;;;;5056795;28;19956;-30
2023/08/11 16:10:13;;;;;;;;;;;;;;;;;;5056558;28;19909;-28
2023/08/11 16:12:39;;;;;;;;;;;;;;;;;;5056561;28;20336;-30
2023/08/11 16:15:05;;;;;;;;;;;;;;;;;;5056426;28;19908;-30
2023/08/11 16:17:31;;;;;;;;;;;;;;;;;;5056329;28;19909;-30
2023/08/11 16:19:57;;;;;;;;;;;;;;;;;;5056464;28;19973;-30
2023/08/11 16:22:23;;;;;;;;;;;;;;;;;;5038865;28;19913;-28
2023/08/11 16:24:49;;;;;;;;;;;;;;;;;;5056556;28;19909;-27
2023/08/11 16:27:15;;;;;;;;;;;;;;;;;;5038829;28;19916;-26
2023/08/11 16:29:41;;;;;;;;;;;;;;;;;;5056026;28;19909;-26
2023/08/11 16:32:08;;;;;;;;;;;;;;;;;;5056059;28;19920;-30
2023/08/11 16:34:35;;;;;;;;;;;;;;;;;;5056375;28;20071;-26
2023/08/11 16:37:02;;;;;;;;;;;;;;;;;;5056200;28;19909;-32